TAF KLGU
KLGU 090555Z 0906/1006 35009KT P6SM OVC070 FM090900 34007KT P6SM VCSH BKN030 OVC040 FM091100 33008KT 2SM -SN SCT008 OVC010 FM092200 34007KT 6SM BR VCSH SCT010 BKN020 FM100200 35006KT P6SM SCT035 BKN050=
METAR KLGU
WC KLGU
WS KLGU
WV KLGU